Time;durP1;ratioP1;P1;durP2;ratioP2;P2;SDS_P1;SDS_P2;PMS_P1;PMS_P2;Temp;Humidity;BMP_temperature;BMP_pressure;BME280_temperature;BME280_humidity;BME280_pressure;Samples;Min_cycle;Max_cycle;Signal;HPM_P1;HPM_P2
2021/04/16 05:31:41;;;;;;;14.50;9.00;;;;;;;5.15;87.34;100191.52;1732494;77;27221;-61
2021/04/16 05:34:08;;;;;;;15.35;8.20;;;;;;;5.16;87.39;100186.95;1775570;80;25683;-63
2021/04/16 05:36:41;;;;;;;15.35;8.68;;;;;;;5.17;87.35;100187.22;1784345;79;25638;-63
2021/04/16 05:39:21;;;;;;;13.60;8.83;;;;;;;5.20;87.33;100188.81;1788011;78;25766;-62
2021/04/16 05:41:47;;;;;;;;;;;;;;;5.21;87.30;100190.95;1789453;79;25294;-64
2021/04/16 05:44:26;;;;;;;13.78;8.35;;;;;;;5.24;87.35;100187.72;1782298;78;25493;-63
2021/04/16 05:47:03;;;;;;;15.45;8.88;;;;;;;5.24;87.32;100195.77;1781961;80;25666;-62
2021/04/16 05:49:31;;;;;;;11.75;8.60;;;;;;;5.26;87.33;100192.81;1785195;80;25482;-63
2021/04/16 05:51:59;;;;;;;13.15;7.37;;;;;;;5.26;87.29;100184.77;1784041;78;25814;-62
2021/04/16 05:54:26;;;;;;;11.78;8.53;;;;;;;5.23;87.06;100189.61;1783813;78;25516;-63
2021/04/16 05:56:56;;;;;;;15.05;8.75;;;;;;;5.22;87.23;100175.92;1784270;78;25539;-63
2021/04/16 05:59:25;;;;;;;12.28;8.28;;;;;;;5.26;87.33;100182.91;1783900;78;25622;-63
2021/04/16 06:01:53;;;;;;;13.40;8.20;;;;;;;5.28;87.40;100180.75;1784798;80;25517;-63
2021/04/16 06:04:23;;;;;;;15.93;8.55;;;;;;;5.30;87.35;100178.58;1784381;78;25999;-63
2021/04/16 06:07:21;;;;;;;12.33;7.97;;;;;;;5.32;87.36;100181.78;1780352;78;25636;-64
2021/04/16 06:09:51;;;;;;;13.95;8.48;;;;;;;5.32;87.28;100180.44;1798814;79;25523;-63
2021/04/16 06:12:21;;;;;;;10.15;7.53;;;;;;;5.35;87.32;100177.77;1806762;79;25738;-63
2021/04/16 06:15:22;;;;;;;11.93;7.97;;;;;;;5.36;87.37;100181.52;1801114;78;25513;-66
2021/04/16 06:18:26;;;;;;;11.28;7.72;;;;;;;5.37;87.26;100184.44;1776707;78;26223;-63
2021/04/16 06:20:59;;;;;;;11.93;7.28;;;;;;;5.38;87.28;100186.05;1794735;79;25286;-64
2021/04/16 06:23:28;;;;;;;13.25;7.12;;;;;;;5.40;87.32;100184.44;1795526;79;25474;-60
2021/04/16 06:25:55;;;;;;;11.88;7.83;;;;;;;5.42;87.25;100187.64;1789225;79;25277;-63
2021/04/16 06:28:25;;;;;;;11.28;7.62;;;;;;;5.42;87.27;100188.44;1783946;79;25367;-64
2021/04/16 06:30:54;;;;;;;15.13;7.75;;;;;;;5.45;87.30;100191.12;1782427;79;26713;-63
2021/04/16 06:33:27;;;;;;;11.25;7.58;;;;;;;5.45;87.17;100187.09;1772823;79;25347;-64
2021/04/16 06:36:08;;;;;;;17.98;9.13;;;;;;;5.45;87.17;100185.75;1773056;79;25458;-64
2021/04/16 06:39:20;;;;;;;16.27;11.00;;;;;;;5.46;87.09;100189.23;1773040;79;25597;-63
2021/04/16 06:41:49;;;;;;;13.30;8.05;;;;;;;5.46;87.06;100190.02;1773026;79;25275;-64
2021/04/16 06:44:22;;;;;;;;;;;;;;;5.48;87.17;100197.80;1774285;79;26715;-62
2021/04/16 06:46:57;;;;;;;12.78;8.10;;;;;;;5.49;87.13;100195.39;1781383;79;25582;-62
2021/04/16 06:49:29;;;;;;;14.80;7.97;;;;;;;5.48;87.05;100192.43;1774485;80;25268;-62
2021/04/16 06:52:25;;;;;;;13.68;7.58;;;;;;;5.47;86.96;100193.53;1774212;80;25340;-64
2021/04/16 06:55:25;;;;;;;13.20;8.45;;;;;;;5.45;86.88;100191.64;1774349;80;25267;-61
2021/04/16 06:58:09;;;;;;;15.85;8.30;;;;;;;5.41;86.71;100190.88;1774281;80;25711;-63
2021/04/16 07:01:08;;;;;;;14.38;8.10;;;;;;;5.40;86.79;100193.28;1773823;80;25419;-64
2021/04/16 07:03:46;;;;;;;15.93;8.90;;;;;;;5.39;86.83;100187.64;1737974;81;25360;-63
2021/04/16 07:06:31;;;;;;;19.48;10.38;;;;;;;5.38;86.85;100186.05;1668441;84;25375;-63
2021/04/16 07:09:12;;;;;;;13.90;8.05;;;;;;;5.38;86.95;100187.40;1699131;83;25392;-62
2021/04/16 07:11:52;;;;;;;15.60;10.57;;;;;;;5.46;87.19;100178.50;1833627;76;28232;-62
2021/04/16 07:14:39;;;;;;;16.62;9.68;;;;;;;5.44;86.85;100182.80;1849623;77;25792;-62
2021/04/16 07:17:10;;;;;;;17.32;10.48;;;;;;;5.47;86.88;100182.25;1778788;80;25711;-63
2021/04/16 07:19:37;;;;;;;15.03;9.40;;;;;;;5.48;86.95;100175.78;1779007;80;25318;-63
2021/04/16 07:22:27;;;;;;;14.63;9.05;;;;;;;5.49;86.95;100181.42;1800312;79;25511;-63
2021/04/16 07:24:54;;;;;;;12.85;8.03;;;;;;;5.50;86.92;100183.04;1778071;80;25261;-63
2021/04/16 07:27:48;;;;;;;14.60;8.55;;;;;;;5.49;86.87;100181.42;1800240;79;25240;-62
2021/04/16 07:30:44;;;;;;;11.28;7.95;;;;;;;5.50;86.96;100183.04;1778376;80;26610;-62
2021/04/16 07:33:38;;;;;;;12.47;7.95;;;;;;;5.52;87.12;100184.11;1799629;79;25275;-63
2021/04/16 07:36:25;;;;;;;15.45;8.90;;;;;;;5.55;87.16;100186.21;1779026;80;25284;-63
2021/04/16 07:39:09;;;;;;;12.05;8.18;;;;;;;5.56;87.24;100185.94;1799784;79;25486;-62
2021/04/16 07:41:47;;;;;;;12.95;8.35;;;;;;;5.58;87.14;100191.03;1766116;80;25428;-64
2021/04/16 07:44:34;;;;;;;14.50;9.00;;;;;;;5.59;87.29;100194.78;1732387;81;25742;-62
2021/04/16 07:47:15;;;;;;;13.05;9.60;;;;;;;5.62;87.31;100196.12;1754571;81;25679;-63
2021/04/16 07:50:03;;;;;;;13.53;9.75;;;;;;;5.65;87.33;100194.75;1752735;81;25716;-63
2021/04/16 07:52:46;;;;;;;16.25;8.65;;;;;;;5.68;87.41;100190.96;1751084;81;26122;-63
2021/04/16 07:55:29;;;;;;;14.58;8.40;;;;;;;5.71;87.33;100199.02;1755263;81;25480;-63
2021/04/16 07:58:19;;;;;;;15.23;9.95;;;;;;;5.73;87.29;100186.91;1749433;81;26438;-63
2021/04/16 08:00:49;;;;;;;21.55;12.63;;;;;;;5.90;87.29;100209.33;1739566;81;25567;-63
2021/04/16 08:03:21;;;;;;;12.13;8.05;;;;;;;5.90;87.29;100209.33;1772549;80;25295;-62
2021/04/16 08:05:57;;;;;;;16.85;9.28;;;;;;;5.79;87.02;100195.19;1752186;81;25613;-64
2021/04/16 08:08:31;;;;;;;11.15;7.72;;;;;;;5.83;87.08;100199.46;1751215;81;25459;-63
2021/04/16 08:11:12;;;;;;;15.20;8.30;;;;;;;5.83;87.06;100203.48;1725873;82;25962;-63
2021/04/16 08:13:51;;;;;;;14.28;9.63;;;;;;;5.87;87.10;100198.36;1726236;83;25281;-63
2021/04/16 08:16:26;;;;;;;16.50;7.78;;;;;;;5.88;86.99;100203.45;1726355;83;25439;-62
2021/04/16 08:19:07;;;;;;;12.33;8.20;;;;;;;5.92;86.96;100205.03;1734389;82;25458;-61
2021/04/16 08:21:39;;;;;;;12.47;7.97;;;;;;;5.93;86.90;100200.73;1702633;82;25567;-63
2021/04/16 08:24:23;;;;;;;19.65;9.53;;;;;;;5.90;86.90;100194.57;1733958;82;25813;-63
2021/04/16 08:27:04;;;;;;;13.18;9.13;;;;;;;5.98;86.97;100199.92;1733792;82;25413;-62
2021/04/16 08:29:40;;;;;;;12.73;8.90;;;;;;;6.01;86.86;100200.72;1710572;83;25373;-62
2021/04/16 08:32:38;;;;;;;15.05;8.95;;;;;;;6.05;86.75;100199.61;1710757;83;25528;-62
2021/04/16 08:35:25;;;;;;;14.93;9.05;;;;;;;6.06;86.62;100199.33;1718370;82;25455;-63
2021/04/16 08:38:09;;;;;;;14.10;8.45;;;;;;;6.08;86.67;100197.16;1740015;82;28083;-63
2021/04/16 08:40:46;;;;;;;14.28;7.78;;;;;;;6.12;86.69;100197.39;1687875;84;25493;-63
2021/04/16 08:43:30;;;;;;;10.53;7.40;;;;;;;6.14;86.58;100201.94;1710677;83;25508;-64
2021/04/16 08:46:01;;;;;;;25.75;12.78;;;;;;;6.15;86.43;100200.32;1695978;84;25503;-61
2021/04/16 08:48:36;;;;;;;14.87;8.60;;;;;;;6.18;86.56;100203.00;1697534;83;25644;-62
2021/04/16 08:51:10;;;;;;;16.82;10.13;;;;;;;6.21;86.43;100196.25;1715096;83;25817;-64
2021/04/16 08:53:43;;;;;;;53.48;29.55;;;;;;;6.25;86.34;100202.13;1694324;84;25670;-64
2021/04/16 08:56:20;;;;;;;21.15;10.75;;;;;;;6.30;86.42;100190.52;1694322;84;25678;-63
2021/04/16 08:58:56;;;;;;;14.30;9.33;;;;;;;6.41;86.25;100194.72;1825703;76;29470;-63
2021/04/16 09:01:33;;;;;;;17.62;8.45;;;;;;;6.46;86.17;100195.22;1808427;78;25334;-64
2021/04/16 09:04:23;;;;;;;12.45;8.00;;;;;;;6.53;86.18;100194.34;1812835;78;25692;-64
2021/04/16 09:06:57;;;;;;;13.93;8.43;;;;;;;6.63;86.32;100197.47;1810788;78;25495;-64
2021/04/16 09:09:50;;;;;;;10.68;7.33;;;;;;;6.73;86.37;100186.62;1810730;77;25636;-63
2021/04/16 09:12:42;;;;;;;10.58;7.30;;;;;;;6.84;86.29;100189.98;1816752;77;25245;-64
2021/04/16 09:15:26;;;;;;;11.60;8.03;;;;;;;6.92;86.17;100186.67;1810112;79;25525;-63
2021/04/16 09:18:01;;;;;;;11.18;7.17;;;;;;;7.01;86.01;100180.90;1810113;79;25683;-62
2021/04/16 09:20:39;;;;;;;9.45;7.25;;;;;;;7.02;85.38;100185.20;1810039;79;25570;-63
2021/04/16 09:23:29;;;;;;;10.63;7.42;;;;;;;7.02;85.15;100181.16;1809770;78;25417;-64
2021/04/16 09:25:55;;;;;;;12.05;7.08;;;;;;;7.05;85.15;100184.63;1787417;80;25422;-62
2021/04/16 09:28:27;;;;;;;11.50;7.70;;;;;;;7.06;84.91;100182.18;1810737;78;25292;-64
2021/04/16 09:30:58;;;;;;;9.85;6.65;;;;;;;7.08;84.87;100186.75;1809793;77;25989;-62
2021/04/16 09:33:40;;;;;;;11.40;6.97;;;;;;;7.08;84.51;100181.89;1758839;78;25596;-63
2021/04/16 09:36:17;;;;;;;16.50;10.38;;;;;;;7.05;84.38;100185.97;1822322;78;25346;-64
2021/04/16 09:38:57;;;;;;;13.80;8.93;;;;;;;7.07;84.40;100187.03;1793165;78;25467;-63
2021/04/16 09:41:31;;;;;;;19.82;12.47;;;;;;;7.09;84.66;100185.64;1802059;78;25444;-63
2021/04/16 09:44:05;;;;;;;12.10;8.40;;;;;;;7.16;84.70;100184.50;1822122;78;25738;-62
2021/04/16 09:46:38;;;;;;;11.15;6.80;;;;;;;7.21;84.77;100183.09;1812410;78;26178;-64
2021/04/16 09:49:29;;;;;;;13.13;7.58;;;;;;;7.26;84.63;100189.75;1822215;78;25302;-63
2021/04/16 09:52:01;;;;;;;9.88;6.97;;;;;;;7.31;84.42;100185.65;1737482;82;25579;-64
2021/04/16 09:54:35;;;;;;;14.70;6.40;;;;;;;7.31;84.06;100182.95;1687859;83;25707;-64
2021/04/16 09:57:08;;;;;;;11.48;6.58;;;;;;;7.31;84.13;100182.95;1716676;81;26443;-62
2021/04/16 09:59:42;;;;;;;14.03;6.95;;;;;;;7.32;83.68;100190.48;1698418;82;25523;-63
2021/04/16 10:02:17;;;;;;;9.38;6.28;;;;;;;7.32;83.74;100189.95;1718745;81;25479;-62
2021/04/16 10:05:10;;;;;;;10.32;7.50;;;;;;;7.28;83.35;100185.67;1734961;81;25605;-62
2021/04/16 10:07:53;;;;;;;11.85;6.65;;;;;;;7.31;83.23;100192.93;1863598;75;34588;-62
2021/04/16 10:10:34;;;;;;;9.60;6.47;;;;;;;7.23;83.30;100190.33;1826786;76;25315;-62
2021/04/16 10:13:21;;;;;;;10.72;6.33;;;;;;;7.21;83.35;100189.82;1842589;76;26698;-61
2021/04/16 10:15:53;;;;;;;10.98;6.95;;;;;;;7.19;83.45;100188.77;1751981;80;25541;-63
2021/04/16 10:18:36;;;;;;;11.83;6.90;;;;;;;7.26;83.66;100179.78;1867898;75;34582;-63
2021/04/16 10:21:26;;;;;;;11.95;8.03;;;;;;;7.23;83.57;100182.25;1833553;76;25243;-63
2021/04/16 12:39:01;;;;;;;11.97;7.70;;;;;;;7.01;82.72;100223.92;1792908;79;25685;-63
2021/04/16 12:41:38;;;;;;;15.72;8.08;;;;;;;7.03;83.05;100223.64;1776185;78;25916;-62
2021/04/16 12:44:06;;;;;;;11.35;7.72;;;;;;;7.05;83.21;100226.31;1783788;78;25692;-64
2021/04/16 12:46:36;;;;;;;11.03;7.58;;;;;;;7.08;83.41;100227.63;1785663;79;25677;-63
2021/04/16 12:49:06;;;;;;;15.78;7.75;;;;;;;7.09;83.44;100221.95;1807578;78;25629;-63
2021/04/16 12:51:32;;;;;;;12.60;8.18;;;;;;;7.10;83.28;100222.78;1813569;78;25567;-63
2021/04/16 12:53:59;;;;;;;11.40;7.20;;;;;;;7.08;83.22;100223.06;1808894;78;26166;-63
2021/04/16 12:56:37;;;;;;;10.63;7.40;;;;;;;7.09;83.38;100222.51;1809260;78;25758;-63
2021/04/16 12:59:14;;;;;;;14.45;7.22;;;;;;;7.08;83.42;100218.20;1788156;79;25193;-62
2021/04/16 13:01:45;;;;;;;11.70;7.55;;;;;;;7.08;83.32;100220.37;1814230;77;25464;-64
2021/04/16 13:04:16;;;;;;;11.40;7.40;;;;;;;7.07;83.41;100222.80;1778083;80;25338;-64
2021/04/16 13:06:46;;;;;;;10.93;7.58;;;;;;;7.08;83.54;100224.93;1758103;81;26254;-64
2021/04/16 13:09:16;;;;;;;12.18;8.00;;;;;;;7.10;83.66;100221.44;1789312;80;25510;-64
2021/04/16 13:11:43;;;;;;;16.67;7.83;;;;;;;7.10;83.78;100228.16;1789235;80;25458;-61
2021/04/16 13:14:10;;;;;;;12.37;8.18;;;;;;;7.10;83.81;100220.09;1793690;78;25690;-63
2021/04/16 13:16:37;;;;;;;10.15;7.95;;;;;;;7.09;83.81;100223.30;1757420;81;25565;-63
2021/04/16 13:19:09;;;;;;;11.33;7.28;;;;;;;7.10;83.94;100218.74;1800535;77;25703;-63
2021/04/16 13:21:40;;;;;;;9.38;7.50;;;;;;;7.13;83.92;100218.70;1796447;78;25662;-63
2021/04/16 13:24:10;;;;;;;9.63;7.53;;;;;;;7.10;83.92;100212.81;1789213;80;25352;-63
2021/04/16 13:26:38;;;;;;;13.22;8.48;;;;;;;7.09;83.82;100219.27;1789328;80;25432;-62
2021/04/16 13:29:06;;;;;;;10.72;7.87;;;;;;;7.06;83.77;100215.80;1789226;80;25481;-64
2021/04/16 13:31:36;;;;;;;10.68;8.08;;;;;;;7.05;83.77;100218.80;1789248;80;25782;-63
2021/04/16 13:34:04;;;;;;;7.08;6.33;;;;;;;7.02;83.76;100224.20;1780461;80;25396;-64
2021/04/16 13:36:33;;;;;;;9.13;6.67;;;;;;;6.96;83.37;100222.64;1780547;80;25432;-63
2021/04/16 13:39:00;;;;;;;10.82;6.87;;;;;;;6.89;83.15;100225.67;1780755;80;25392;-64
2021/04/16 13:41:28;;;;;;;9.28;5.87;;;;;;;6.80;83.01;100226.60;1780646;80;25522;-63
2021/04/16 13:43:55;;;;;;;7.53;5.85;;;;;;;6.71;83.03;100227.22;1789083;79;25762;-64
2021/04/16 13:46:26;;;;;;;7.22;5.80;;;;;;;6.66;83.11;100231.85;1785490;80;25466;-64
2021/04/16 13:48:55;;;;;;;7.30;5.40;;;;;;;6.61;83.16;100235.38;1785585;80;25353;-63
2021/04/16 13:51:25;;;;;;;7.40;4.70;;;;;;;6.58;83.13;100240.53;1817950;78;25331;-63
2021/04/16 13:53:52;;;;;;;6.87;4.87;;;;;;;6.51;83.00;100240.85;1819844;78;25294;-63
2021/04/16 13:56:21;;;;;;;10.05;4.53;;;;;;;6.44;82.94;100245.21;1821712;78;25772;-63
2021/04/16 13:58:47;;;;;;;6.67;4.58;;;;;;;6.36;82.83;100249.29;1821437;78;25268;-63
2021/04/16 14:01:14;;;;;;;4.95;4.15;;;;;;;6.30;83.04;100245.58;1821485;78;25598;-63
2021/04/16 14:03:48;;;;;;;6.30;4.17;;;;;;;6.26;83.08;100247.23;1812914;78;25266;-64
2021/04/16 14:06:22;;;;;;;5.40;3.98;;;;;;;6.21;83.06;100243.25;1802157;78;25441;-65
2021/04/16 14:09:06;;;;;;;7.60;3.90;;;;;;;6.15;83.05;100247.32;1804917;78;25696;-64
2021/04/16 14:11:34;;;;;;;5.33;3.75;;;;;;;6.11;83.23;100244.95;1803888;78;25277;-62
2021/04/16 14:14:07;;;;;;;8.28;4.55;;;;;;;6.09;83.24;100244.95;1788405;80;25266;-62
2021/04/16 14:16:37;;;;;;;5.58;4.67;;;;;;;6.06;83.33;100241.47;1803403;78;25499;-63
2021/04/16 14:19:19;;;;;;;7.10;4.62;;;;;;;6.04;83.56;100239.61;1805876;78;25357;-63
2021/04/16 14:21:55;;;;;;;8.68;4.30;;;;;;;6.05;83.76;100243.91;1818954;78;25777;-64
2021/04/16 14:24:23;;;;;;;6.55;4.97;;;;;;;6.03;83.78;100231.28;1821411;78;25602;-64
2021/04/16 14:26:52;;;;;;;8.70;5.90;;;;;;;6.02;83.90;100237.75;1815227;78;25433;-64
2021/04/16 14:29:19;;;;;;;10.05;6.67;;;;;;;6.04;84.03;100238.27;1806679;78;25482;-63
2021/04/16 14:31:46;;;;;;;8.75;5.75;;;;;;;6.05;84.21;100238.00;1808123;78;25625;-63
2021/04/16 14:34:18;;;;;;;9.28;5.78;;;;;;;6.08;84.39;100237.96;1791710;78;25714;-63
2021/04/16 14:36:45;;;;;;;9.93;5.62;;;;;;;6.09;84.39;100236.34;1804694;78;25313;-63
2021/04/16 14:39:12;;;;;;;10.03;5.80;;;;;;;6.09;84.39;100240.92;1804582;78;25567;-64
2021/04/16 14:41:40;;;;;;;10.32;6.80;;;;;;;6.11;84.46;100240.09;1803763;78;25526;-64
2021/04/16 14:44:14;;;;;;;13.03;7.83;;;;;;;6.11;84.54;100238.23;1805666;78;25563;-64
2021/04/16 14:46:38;;;;;;;8.03;5.58;;;;;;;6.14;84.71;100236.85;1787768;80;25723;-64
2021/04/16 14:49:05;;;;;;;9.35;6.03;;;;;;;6.16;84.57;100238.71;1770629;79;25801;-64
2021/04/16 14:51:32;;;;;;;8.80;6.03;;;;;;;6.15;84.48;100241.16;1786065;80;25630;-63
2021/04/16 14:54:06;;;;;;;7.25;5.60;;;;;;;6.15;84.45;100243.84;1783359;80;25556;-64
2021/04/16 14:56:33;;;;;;;8.00;6.10;;;;;;;6.15;84.50;100243.84;1763778;80;25571;-63
2021/04/16 14:59:11;;;;;;;8.05;6.28;;;;;;;6.16;84.57;100244.08;1733068;82;25788;-62
2021/04/16 15:01:37;;;;;;;9.28;6.58;;;;;;;6.16;84.61;100240.05;1767730;79;25554;-62
2021/04/16 15:04:04;;;;;;;11.05;7.20;;;;;;;6.15;84.65;100241.16;1764983;81;25635;-62
2021/04/16 15:06:31;;;;;;;14.25;9.13;;;;;;;6.16;84.69;100241.39;1765908;79;25606;-62
2021/04/16 15:09:05;;;;;;;13.15;8.90;;;;;;;6.16;84.79;100238.19;1766058;81;25523;-63
2021/04/16 15:11:43;;;;;;;13.65;9.60;;;;;;;6.17;84.80;100243.02;1763119;81;26638;-63
2021/04/16 15:14:23;;;;;;;14.85;10.65;;;;;;;6.19;84.94;100238.70;1763028;81;25648;-62
2021/04/16 15:16:52;;;;;;;13.72;9.88;;;;;;;6.19;84.98;100237.36;1773364;80;25373;-63
2021/04/16 15:19:36;;;;;;;16.57;9.90;;;;;;;6.21;85.12;100242.70;1763130;81;25278;-62
2021/04/16 15:22:08;;;;;;;15.80;9.68;;;;;;;6.23;85.18;100241.91;1769593;78;25526;-63
2021/04/16 15:24:40;;;;;;;11.60;8.68;;;;;;;6.24;85.18;100241.35;1767460;79;27286;-64
2021/04/16 15:27:22;;;;;;;15.08;9.10;;;;;;;6.23;85.07;100243.25;1767403;80;25511;-62
2021/04/16 15:29:52;;;;;;;10.35;8.53;;;;;;;6.24;85.16;100244.03;1767054;80;25316;-62
2021/04/16 15:32:33;;;;;;;12.63;8.10;;;;;;;6.24;85.18;100250.20;1763390;80;25283;-62
2021/04/16 15:46:22;;;;;;;13.00;9.00;;;;;;;6.21;85.28;100252.66;1764356;78;25701;-61
2021/04/16 15:48:47;;;;;;;;;;;;;;;6.19;85.26;100252.92;1771827;80;25526;-62
2021/04/16 15:51:20;;;;;;;14.10;9.48;;;;;;;6.19;85.50;100256.95;1762920;81;26733;-63
2021/04/16 15:53:50;;;;;;;14.63;9.43;;;;;;;6.18;85.54;100260.74;1760240;81;25506;-63
2021/04/16 15:56:24;;;;;;;13.55;10.23;;;;;;;6.18;85.57;100254.03;1757853;80;25324;-63
2021/04/16 15:58:54;;;;;;;14.60;10.60;;;;;;;6.15;85.41;100262.64;1788864;80;25662;-63
2021/04/16 16:01:26;;;;;;;12.53;10.72;;;;;;;6.14;85.53;100264.50;1789044;80;25503;-62
2021/04/16 16:03:58;;;;;;;13.45;10.45;;;;;;;6.12;85.55;100257.27;1757758;81;25702;-62
2021/04/16 16:06:28;;;;;;;15.68;10.15;;;;;;;6.13;85.64;100260.23;1789067;80;25460;-62
2021/04/16 16:08:56;;;;;;;14.30;10.48;;;;;;;6.12;85.64;100261.30;1788569;80;25361;-62
2021/04/16 16:11:34;;;;;;;16.12;11.43;;;;;;;6.13;85.65;100262.92;1788790;80;25353;-62
2021/04/16 16:14:00;;;;;;;15.20;10.55;;;;;;;6.11;85.53;100264.27;1777238;79;25698;-63
2021/04/16 16:32:11;;;;;;;14.83;11.73;;;;;;;6.07;85.96;100273.42;1769618;77;25822;-62
2021/04/16 16:34:38;;;;;;;15.98;12.03;;;;;;;6.04;85.99;100272.62;1682187;82;25787;-62
2021/04/16 16:37:06;;;;;;;16.62;11.30;;;;;;;6.05;86.02;100273.45;1734300;82;25438;-62
2021/04/16 16:39:34;;;;;;;15.85;11.45;;;;;;;6.04;86.03;100279.89;1726685;81;25554;-62
2021/04/16 16:42:01;;;;;;;15.68;11.20;;;;;;;6.03;86.05;100280.96;1722856;83;25497;-62
2021/04/16 16:44:33;;;;;;;17.67;13.45;;;;;;;6.01;85.98;100278.58;1718006;83;25347;-61
2021/04/16 16:47:01;;;;;;;16.30;12.47;;;;;;;6.03;86.04;100283.65;1755568;81;26561;-63
2021/04/16 16:49:28;;;;;;;15.75;12.07;;;;;;;6.02;86.09;100282.06;1755607;81;25483;-62
2021/04/16 16:51:56;;;;;;;18.02;12.35;;;;;;;6.03;86.05;100283.65;1748443;81;25515;-62
2021/04/16 16:54:23;;;;;;;15.90;11.70;;;;;;;6.02;86.06;100286.88;1725055;83;25319;-63
2021/04/16 16:56:50;;;;;;;18.60;12.80;;;;;;;6.03;86.09;100283.65;1729427;82;25519;-63
2021/04/16 16:59:25;;;;;;;18.20;13.00;;;;;;;6.03;86.13;100280.44;1729809;81;25793;-63
2021/04/16 17:01:52;;;;;;;19.10;12.70;;;;;;;6.05;86.10;100288.22;1717651;81;25420;-61
2021/04/16 17:04:19;;;;;;;18.70;13.13;;;;;;;6.04;86.10;100286.61;1718669;81;25630;-63
2021/04/16 17:06:46;;;;;;;19.17;13.55;;;;;;;6.03;86.10;100286.33;1720596;81;26282;-64
2021/04/16 17:09:15;;;;;;;22.65;15.63;;;;;;;6.05;86.16;100292.25;1704230;81;25462;-65
2021/04/16 17:11:44;;;;;;;23.38;14.70;;;;;;;6.04;86.16;100292.77;1704592;84;25888;-62
2021/04/16 17:14:16;;;;;;;37.85;23.62;;;;;;;6.04;86.16;100294.11;1704308;83;25181;-63
2021/04/16 17:16:44;;;;;;;44.05;27.27;;;;;;;6.03;86.11;100297.89;1704081;82;25605;-63
2021/04/16 17:19:12;;;;;;;19.27;14.95;;;;;;;6.06;86.14;100305.92;1709731;83;25476;-62
2021/04/16 17:21:39;;;;;;;22.85;15.40;;;;;;;6.04;86.10;100304.06;1709798;83;25421;-63
2021/04/16 17:24:09;;;;;;;20.32;15.38;;;;;;;6.03;86.11;100305.13;1709581;83;26707;-63
2021/04/16 17:26:41;;;;;;;22.75;17.15;;;;;;;6.02;86.15;100303.55;1709747;83;25504;-62
2021/04/16 17:29:12;;;;;;;19.67;16.25;;;;;;;6.03;86.26;100309.16;1706804;82;25290;-62
2021/04/16 17:31:39;;;;;;;24.43;16.57;;;;;;;6.02;86.24;100311.59;1711439;81;25583;-63
2021/04/16 17:34:06;;;;;;;21.48;16.25;;;;;;;6.02;86.28;100314.28;1724599;81;25568;-62
2021/04/16 17:36:34;;;;;;;24.00;16.42;;;;;;;5.99;86.15;100319.66;1725379;83;25726;-63
2021/04/16 17:39:00;;;;;;;19.95;17.07;;;;;;;5.97;86.15;100317.79;1725009;83;25457;-63
2021/04/16 17:41:37;;;;;;;23.20;18.30;;;;;;;5.95;86.17;100316.69;1725427;83;25304;-62
2021/04/16 17:44:05;;;;;;;27.22;19.20;;;;;;;5.94;86.26;100321.81;1725487;83;25490;-63
2021/04/16 17:46:32;;;;;;;36.03;21.95;;;;;;;5.94;86.29;100328.53;1724973;83;25535;-62
2021/04/16 17:49:01;;;;;;;57.78;33.92;;;;;;;5.93;86.34;100329.59;1725299;83;25815;-62
2021/04/16 17:51:31;;;;;;;26.33;18.42;;;;;;;5.92;86.35;100329.87;1709874;83;25458;-62
2021/04/16 17:54:00;;;;;;;29.02;19.05;;;;;;;5.93;86.48;100339.55;1703414;84;25274;-62
2021/04/16 17:56:30;;;;;;;24.55;18.00;;;;;;;5.92;86.49;100337.92;1709189;81;25387;-62
2021/04/16 17:59:03;;;;;;;;;;;;;;;5.90;86.55;100342.23;1724694;82;25611;-62
2021/04/16 18:01:33;;;;;;;29.67;19.90;;;;;;;5.91;86.60;100345.19;1703724;84;26504;-62
2021/04/16 18:04:00;;;;;;;28.45;20.30;;;;;;;5.89;86.66;100341.98;1705056;84;25351;-61
2021/04/16 18:06:32;;;;;;;28.50;20.45;;;;;;;5.90;86.69;100344.12;1705151;84;25479;-61
2021/04/16 18:08:59;;;;;;;30.75;21.95;;;;;;;5.90;86.78;100340.09;1704316;84;25574;-61
2021/04/16 18:11:27;;;;;;;31.80;21.33;;;;;;;5.91;86.80;100349.21;1704967;82;25305;-61
2021/04/16 18:13:57;;;;;;;28.32;20.68;;;;;;;5.90;86.79;100347.59;1681546;83;25866;-61
2021/04/16 18:16:23;;;;;;;32.15;21.10;;;;;;;5.91;86.88;100344.39;1709456;83;25461;-63
2021/04/16 18:18:51;;;;;;;28.87;20.48;;;;;;;5.90;86.86;100344.91;1704826;84;25466;-61
2021/04/16 18:21:25;;;;;;;28.92;20.92;;;;;;;5.91;86.91;100346.53;1687110;85;25337;-61
2021/04/16 18:24:00;;;;;;;28.55;20.62;;;;;;;5.92;86.94;100346.77;1710063;83;25560;-61
2021/04/16 18:26:39;;;;;;;33.18;20.92;;;;;;;5.90;86.84;100352.97;1729566;82;25738;-63
2021/04/16 18:29:10;;;;;;;28.47;19.92;;;;;;;5.89;86.84;100358.09;1703217;83;25740;-62
2021/04/16 18:31:37;;;;;;;29.20;19.37;;;;;;;5.89;86.99;100358.61;1717680;82;25576;-61
2021/04/16 18:34:04;;;;;;;28.23;20.17;;;;;;;5.90;87.08;100358.88;1710019;82;25566;-62
2021/04/16 18:36:39;;;;;;;25.80;20.25;;;;;;;5.91;87.11;100361.84;1704249;82;25445;-62
2021/04/16 18:39:11;;;;;;;29.23;20.97;;;;;;;5.92;87.18;100362.09;1704404;82;28113;-63
2021/04/16 18:41:43;;;;;;;30.48;21.48;;;;;;;5.93;87.15;100365.05;1718229;82;25574;-63
2021/04/16 18:44:19;;;;;;;31.07;21.27;;;;;;;5.91;87.09;100365.32;1734526;82;25359;-62
2021/04/16 18:46:47;;;;;;;26.52;20.57;;;;;;;5.91;87.13;100368.01;1720133;82;25301;-62
2021/04/16 18:49:14;;;;;;;34.18;21.65;;;;;;;5.92;87.16;100378.98;1710654;82;26173;-60
2021/04/16 18:51:51;;;;;;;30.82;21.40;;;;;;;5.93;87.25;100375.79;1717644;82;27998;-60
2021/04/16 18:54:36;;;;;;;34.70;24.90;;;;;;;5.93;87.31;100376.58;1713105;82;25461;-60
2021/04/16 18:57:08;;;;;;;32.00;22.80;;;;;;;5.95;87.37;100377.10;1714652;82;25356;-59
2021/04/16 18:59:36;;;;;;;35.48;22.55;;;;;;;5.97;87.35;100374.97;1720187;82;25590;-56
2021/04/16 19:02:05;;;;;;;32.03;23.62;;;;;;;5.97;87.35;100377.66;1717328;82;25226;-61
2021/04/16 19:04:32;;;;;;;35.35;23.98;;;;;;;5.97;87.32;100377.66;1729671;82;26706;-61
2021/04/16 19:07:10;;;;;;;35.83;24.55;;;;;;;6.00;87.36;100375.52;1704015;82;25470;-62
2021/04/16 19:09:48;;;;;;;57.27;34.58;;;;;;;5.99;87.31;100373.35;1706297;82;25801;-59
2021/04/16 19:12:18;;;;;;;42.53;27.60;;;;;;;5.99;87.34;100373.35;1723504;82;26447;-60
2021/04/16 19:14:44;;;;;;;37.63;24.80;;;;;;;6.00;87.43;100376.31;1720384;82;25676;-60
2021/04/16 19:17:17;;;;;;;36.13;23.73;;;;;;;6.02;87.45;100378.73;1703708;83;25731;-62
2021/04/16 19:19:47;;;;;;;35.50;24.02;;;;;;;6.00;87.41;100372.29;1728633;82;25532;-61
2021/04/16 19:22:35;;;;;;;36.40;24.20;;;;;;;6.01;87.32;100373.91;1721019;82;25576;-60
2021/04/16 19:25:17;;;;;;;36.45;24.57;;;;;;;5.98;87.26;100367.73;1725427;82;25299;-59
2021/04/16 19:27:45;;;;;;;33.60;24.87;;;;;;;5.98;87.34;100375.80;1708661;84;25180;-60
2021/04/16 19:30:18;;;;;;;39.85;24.30;;;;;;;5.97;87.41;100365.57;1726470;82;25806;-60
2021/04/16 19:32:46;;;;;;;35.88;24.45;;;;;;;5.98;87.47;100369.88;1711295;82;25609;-61
2021/04/16 19:35:14;;;;;;;36.60;24.95;;;;;;;6.00;87.55;100370.95;1708708;84;25470;-59
2021/04/16 19:37:45;;;;;;;40.55;24.52;;;;;;;5.99;87.54;100374.70;1708548;84;25727;-59
2021/04/16 19:40:35;;;;;;;36.23;25.00;;;;;;;6.00;87.58;100366.13;1681098;84;25548;-59
2021/04/16 19:43:05;;;;;;;35.80;25.05;;;;;;;6.00;87.48;100370.16;1708966;84;28070;-61
2021/04/16 19:45:33;;;;;;;47.73;30.92;;;;;;;5.98;87.52;100363.16;1708619;84;25458;-59
2021/04/16 19:59:32;;;;;;;35.68;23.55;;;;;;;5.97;87.64;100362.09;1708377;84;25523;-60
2021/04/16 20:17:55;;;;;;;38.50;24.30;;;;;;;6.00;87.84;100358.86;1819489;78;25267;-61
2021/04/16 20:20:29;;;;;;;40.78;24.10;;;;;;;6.02;87.92;100363.96;1819602;78;25248;-60
2021/04/16 20:22:58;;;;;;;32.63;23.27;;;;;;;6.00;87.85;100361.55;1819354;78;25440;-61
2021/04/16 20:25:32;;;;;;;33.90;22.53;;;;;;;5.99;87.84;100363.95;1819860;78;25429;-60
2021/04/16 20:28:01;;;;;;;34.08;22.22;;;;;;;5.98;87.85;100363.71;1819125;78;25694;-60
2021/04/16 20:30:34;;;;;;;30.32;22.80;;;;;;;5.97;87.80;100368.80;1819305;78;25491;-59
2021/04/16 20:33:11;;;;;;;36.95;23.15;;;;;;;5.96;87.94;100367.22;1819567;78;25499;-62
2021/04/16 20:35:39;;;;;;;33.00;23.35;;;;;;;5.94;87.97;100368.80;1818405;78;25243;-60